sensor_id;sensor_type;location;lat;lon;timestamp;pressure;altitude;pressure_sealevel;temperature;humidity
72525;BME280;60547;48.502;8.996;2023-05-01T00:01:23;97826.28;;;10.32;78.31
72525;BME280;60547;48.502;8.996;2023-05-01T00:03:48;97822.19;;;10.20;78.19
72525;BME280;60547;48.502;8.996;2023-05-01T00:06:14;97814.00;;;10.13;78.97
72525;BME280;60547;48.502;8.996;2023-05-01T00:08:39;97823.13;;;10.14;78.83
72525;BME280;60547;48.502;8.996;2023-05-01T00:11:05;97819.22;;;10.11;79.92
72525;BME280;60547;48.502;8.996;2023-05-01T00:13:35;97820.97;;;10.05;79.90
72525;BME280;60547;48.502;8.996;2023-05-01T00:16:01;97816.72;;;10.00;79.77
72525;BME280;60547;48.502;8.996;2023-05-01T00:18:29;97808.38;;;10.00;80.02
72525;BME280;60547;48.502;8.996;2023-05-01T00:20:54;97802.81;;;10.00;80.35
72525;BME280;60547;48.502;8.996;2023-05-01T00:23:20;97812.19;;;10.07;79.73
72525;BME280;60547;48.502;8.996;2023-05-01T00:25:45;97810.63;;;10.06;80.54
72525;BME280;60547;48.502;8.996;2023-05-01T00:28:13;97814.09;;;10.10;80.48
72525;BME280;60547;48.502;8.996;2023-05-01T00:30:39;97810.97;;;10.08;80.39
72525;BME280;60547;48.502;8.996;2023-05-01T00:33:05;97790.13;;;9.99;80.10
72525;BME280;60547;48.502;8.996;2023-05-01T00:35:30;97801.84;;;10.07;79.74
72525;BME280;60547;48.502;8.996;2023-05-01T00:37:56;97790.28;;;10.09;79.58
72525;BME280;60547;48.502;8.996;2023-05-01T00:40:22;97794.53;;;10.13;80.10
72525;BME280;60547;48.502;8.996;2023-05-01T00:42:48;97782.63;;;10.13;80.87
72525;BME280;60547;48.502;8.996;2023-05-01T00:45:14;97785.59;;;10.22;80.33
72525;BME280;60547;48.502;8.996;2023-05-01T00:47:40;97782.06;;;10.21;79.28
72525;BME280;60547;48.502;8.996;2023-05-01T00:50:06;97782.38;;;10.23;79.32
72525;BME280;60547;48.502;8.996;2023-05-01T00:52:32;97784.72;;;10.25;79.84
72525;BME280;60547;48.502;8.996;2023-05-01T00:54:58;97774.06;;;10.23;79.11
72525;BME280;60547;48.502;8.996;2023-05-01T00:57:24;97776.06;;;10.23;79.29
72525;BME280;60547;48.502;8.996;2023-05-01T00:59:49;97712.47;;;9.92;79.65
72525;BME280;60547;48.502;8.996;2023-05-01T01:02:15;97757.53;;;10.16;79.65
72525;BME280;60547;48.502;8.996;2023-05-01T01:04:41;97768.66;;;10.16;80.33
72525;BME280;60547;48.502;8.996;2023-05-01T01:07:19;97761.09;;;10.17;80.26
72525;BME280;60547;48.502;8.996;2023-05-01T01:20:34;97751.72;;;10.11;81.87
72525;BME280;60547;48.502;8.996;2023-05-01T01:26:12;97755.38;;;10.08;82.33
72525;BME280;60547;48.502;8.996;2023-05-01T01:29:11;97746.25;;;10.07;82.54
72525;BME280;60547;48.502;8.996;2023-05-01T01:32:08;97748.25;;;10.07;82.33
72525;BME280;60547;48.502;8.996;2023-05-01T01:34:39;97746.69;;;10.06;82.51
72525;BME280;60547;48.502;8.996;2023-05-01T01:37:26;97748.34;;;10.03;82.51
72525;BME280;60547;48.502;8.996;2023-05-01T01:40:00;97744.97;;;9.95;82.21
72525;BME280;60547;48.502;8.996;2023-05-01T01:42:34;97741.06;;;9.93;82.57
72525;BME280;60547;48.502;8.996;2023-05-01T01:45:04;97747.41;;;9.93;82.53
72525;BME280;60547;48.502;8.996;2023-05-01T01:47:35;97731.50;;;9.94;82.33
72525;BME280;60547;48.502;8.996;2023-05-01T01:50:04;97743.56;;;10.03;82.02
72525;BME280;60547;48.502;8.996;2023-05-01T01:52:32;97736.28;;;9.93;81.89
72525;BME280;60547;48.502;8.996;2023-05-01T01:55:02;97730.03;;;9.89;82.00
72525;BME280;60547;48.502;8.996;2023-05-01T01:57:30;97733.84;;;9.95;82.08
72525;BME280;60547;48.502;8.996;2023-05-01T01:59:56;97724.28;;;9.96;82.14
72525;BME280;60547;48.502;8.996;2023-05-01T02:02:23;97730.88;;;10.02;82.59
72525;BME280;60547;48.502;8.996;2023-05-01T02:04:52;97721.16;;;9.94;83.02
72525;BME280;60547;48.502;8.996;2023-05-01T02:07:21;97709.34;;;9.90;82.88
72525;BME280;60547;48.502;8.996;2023-05-01T02:09:48;97717.84;;;9.99;82.96
72525;BME280;60547;48.502;8.996;2023-05-01T02:12:15;97722.19;;;10.00;83.17
72525;BME280;60547;48.502;8.996;2023-05-01T02:14:41;97721.84;;;9.98;83.25
72525;BME280;60547;48.502;8.996;2023-05-01T02:17:09;97711.16;;;9.97;83.23
72525;BME280;60547;48.502;8.996;2023-05-01T02:19:36;97707.34;;;9.91;82.42
72525;BME280;60547;48.502;8.996;2023-05-01T02:22:04;97724.28;;;9.96;82.19
72525;BME280;60547;48.502;8.996;2023-05-01T02:24:31;97717.16;;;9.95;81.14
72525;BME280;60547;48.502;8.996;2023-05-01T02:27:03;97721.31;;;10.03;80.16
72525;BME280;60547;48.502;8.996;2023-05-01T02:29:31;97711.94;;;9.97;79.72
72525;BME280;60547;48.502;8.996;2023-05-01T02:31:59;97714.53;;;10.04;80.85
72525;BME280;60547;48.502;8.996;2023-05-01T02:34:25;97704.81;;;9.96;81.79
72525;BME280;60547;48.502;8.996;2023-05-01T02:36:51;97710.72;;;9.98;82.08
72525;BME280;60547;48.502;8.996;2023-05-01T02:39:16;97708.13;;;9.91;82.62
72525;BME280;60547;48.502;8.996;2023-05-01T02:41:44;97699.44;;;9.89;82.57
72525;BME280;60547;48.502;8.996;2023-05-01T02:44:11;97699.91;;;9.88;83.08
72525;BME280;60547;48.502;8.996;2023-05-01T02:46:41;97705.00;;;9.89;83.08
72525;BME280;60547;48.502;8.996;2023-05-01T02:49:09;97712.47;;;9.92;82.98
72525;BME280;60547;48.502;8.996;2023-05-01T02:51:35;97699.28;;;9.80;83.24
72525;BME280;60547;48.502;8.996;2023-05-01T02:54:01;97696.53;;;9.80;84.09
72525;BME280;60547;48.502;8.996;2023-05-01T02:56:28;97700.50;;;9.79;84.06
72525;BME280;60547;48.502;8.996;2023-05-01T02:58:54;97709.53;;;9.83;84.01
72525;BME280;60547;48.502;8.996;2023-05-01T03:01:20;97690.63;;;9.78;83.83
72525;BME280;60547;48.502;8.996;2023-05-01T03:03:46;97702.31;;;9.86;84.06
72525;BME280;60547;48.502;8.996;2023-05-01T03:06:11;97694.44;;;9.84;84.59
72525;BME280;60547;48.502;8.996;2023-05-01T03:08:40;97685.94;;;9.75;84.39
72525;BME280;60547;48.502;8.996;2023-05-01T03:11:06;97695.66;;;9.83;84.40
72525;BME280;60547;48.502;8.996;2023-05-01T03:13:33;97691.31;;;9.82;84.24
72525;BME280;60547;48.502;8.996;2023-05-01T03:15:58;97689.75;;;9.81;83.88
72525;BME280;60547;48.502;8.996;2023-05-01T03:18:24;97683.41;;;9.81;84.23
72525;BME280;60547;48.502;8.996;2023-05-01T03:20:53;97689.41;;;9.79;84.43
72525;BME280;60547;48.502;8.996;2023-05-01T03:23:19;97683.84;;;9.79;84.22
72525;BME280;60547;48.502;8.996;2023-05-01T03:25:45;97673.94;;;9.78;84.64
72525;BME280;60547;48.502;8.996;2023-05-01T03:28:11;97675.50;;;9.79;84.37
72525;BME280;60547;48.502;8.996;2023-05-01T03:30:36;97679.94;;;9.77;84.80
72525;BME280;60547;48.502;8.996;2023-05-01T03:33:02;97685.66;;;9.86;84.50
72525;BME280;60547;48.502;8.996;2023-05-01T03:35:27;97689.81;;;9.94;84.13
72525;BME280;60547;48.502;8.996;2023-05-01T03:37:53;97684.50;;;9.99;84.25
72525;BME280;60547;48.502;8.996;2023-05-01T03:40:19;97661.59;;;9.79;84.38
72525;BME280;60547;48.502;8.996;2023-05-01T03:42:44;97674.34;;;9.93;84.71
72525;BME280;60547;48.502;8.996;2023-05-01T03:45:10;97684.84;;;10.01;85.79
72525;BME280;60547;48.502;8.996;2023-05-01T03:47:35;97679.13;;;9.92;86.54
72525;BME280;60547;48.502;8.996;2023-05-01T03:50:01;97673.75;;;9.85;87.08
72525;BME280;60547;48.502;8.996;2023-05-01T03:52:27;97679.13;;;9.92;87.51
72525;BME280;60547;48.502;8.996;2023-05-01T03:54:53;97669.25;;;9.75;87.53
72525;BME280;60547;48.502;8.996;2023-05-01T03:57:18;97656.88;;;9.63;88.24
72525;BME280;60547;48.502;8.996;2023-05-01T03:59:48;97667.88;;;9.67;88.00
72525;BME280;60547;48.502;8.996;2023-05-01T04:02:13;97660.75;;;9.66;88.21
72525;BME280;60547;48.502;8.996;2023-05-01T04:04:39;97677.25;;;9.73;88.24
72525;BME280;60547;48.502;8.996;2023-05-01T04:07:04;97671.69;;;9.73;88.71
72525;BME280;60547;48.502;8.996;2023-05-01T04:09:30;97671.00;;;9.69;89.56
72525;BME280;60547;48.502;8.996;2023-05-01T04:11:55;97677.25;;;9.73;90.13
72525;BME280;60547;48.502;8.996;2023-05-01T04:14:21;97663.09;;;9.67;90.29
72525;BME280;60547;48.502;8.996;2023-05-01T04:16:47;97657.47;;;9.71;89.97
72525;BME280;60547;48.502;8.996;2023-05-01T04:19:12;97664.91;;;9.74;90.07
72525;BME280;60547;48.502;8.996;2023-05-01T04:21:38;97663.88;;;9.68;90.31
72525;BME280;60547;48.502;8.996;2023-05-01T04:24:03;97638.75;;;9.43;90.13
72525;BME280;60547;48.502;8.996;2023-05-01T04:26:29;97666.59;;;9.55;91.08
72525;BME280;60547;48.502;8.996;2023-05-01T04:28:54;97689.50;;;9.76;91.22
72525;BME280;60547;48.502;8.996;2023-05-01T04:31:20;97675.69;;;9.72;91.51
72525;BME280;60547;48.502;8.996;2023-05-01T04:33:45;97671.00;;;9.69;91.46
72525;BME280;60547;48.502;8.996;2023-05-01T04:36:11;97665.44;;;9.69;91.51
72525;BME280;60547;48.502;8.996;2023-05-01T04:38:37;97665.53;;;9.65;91.19
72525;BME280;60547;48.502;8.996;2023-05-01T04:41:04;97673.97;;;9.62;91.68
72525;BME280;60547;48.502;8.996;2023-05-01T04:43:30;97686.63;;;9.79;91.59
72525;BME280;60547;48.502;8.996;2023-05-01T04:45:55;97689.75;;;9.81;91.38
72525;BME280;60547;48.502;8.996;2023-05-01T04:48:21;97688.97;;;9.81;91.46
72525;BME280;60547;48.502;8.996;2023-05-01T04:50:46;97681.50;;;9.78;90.80
72525;BME280;60547;48.502;8.996;2023-05-01T04:53:12;97681.06;;;9.79;91.14
72525;BME280;60547;48.502;8.996;2023-05-01T04:55:39;97666.50;;;9.59;92.77
72525;BME280;60547;48.502;8.996;2023-05-01T04:58:06;97673.63;;;9.60;92.63
72525;BME280;60547;48.502;8.996;2023-05-01T05:00:31;97677.44;;;9.66;92.29
72525;BME280;60547;48.502;8.996;2023-05-01T05:02:57;97675.44;;;9.66;92.60
72525;BME280;60547;48.502;8.996;2023-05-01T05:05:22;97680.13;;;9.69;92.19
72525;BME280;60547;48.502;8.996;2023-05-01T05:07:48;97684.19;;;9.81;92.45
72525;BME280;60547;48.502;8.996;2023-05-01T05:10:13;97686.88;;;9.85;93.16
72525;BME280;60547;48.502;8.996;2023-05-01T05:12:39;97675.09;;;9.64;93.62
72525;BME280;60547;48.502;8.996;2023-05-01T05:15:05;97686.13;;;9.68;93.24
72525;BME280;60547;48.502;8.996;2023-05-01T05:17:30;97686.91;;;9.68;93.51
72525;BME280;60547;48.502;8.996;2023-05-01T05:19:56;97697.13;;;9.71;93.93
72525;BME280;60547;48.502;8.996;2023-05-01T05:22:21;97692.34;;;9.72;93.60
72525;BME280;60547;48.502;8.996;2023-05-01T05:24:54;97686.81;;;9.72;93.10
72525;BME280;60547;48.502;8.996;2023-05-01T05:27:20;97694.69;;;9.74;92.44
72525;BME280;60547;48.502;8.996;2023-05-01T05:29:46;97699.28;;;9.80;93.09
72525;BME280;60547;48.502;8.996;2023-05-01T05:32:11;97694.63;;;9.77;92.78
72525;BME280;60547;48.502;8.996;2023-05-01T05:34:37;97670.66;;;9.67;93.44
72525;BME280;60547;48.502;8.996;2023-05-01T05:37:03;97682.47;;;9.71;93.07
72525;BME280;60547;48.502;8.996;2023-05-01T05:39:29;97686.03;;;9.71;92.68
72525;BME280;60547;48.502;8.996;2023-05-01T05:41:55;97689.06;;;9.77;92.81
72525;BME280;60547;48.502;8.996;2023-05-01T05:44:21;97693.75;;;9.80;93.53
72525;BME280;60547;48.502;8.996;2023-05-01T05:46:46;97672.91;;;9.72;94.03
72525;BME280;60547;48.502;8.996;2023-05-01T05:49:12;97696.84;;;9.82;93.23
72525;BME280;60547;48.502;8.996;2023-05-01T05:51:37;97685.06;;;9.78;93.37
72525;BME280;60547;48.502;8.996;2023-05-01T05:54:03;97696.78;;;9.86;93.73
72525;BME280;60547;48.502;8.996;2023-05-01T05:56:28;97694.94;;;9.79;93.71
72525;BME280;60547;48.502;8.996;2023-05-01T05:58:54;97695.47;;;9.90;93.78
72525;BME280;60547;48.502;8.996;2023-05-01T06:01:19;97706.72;;;9.99;93.58
72525;BME280;60547;48.502;8.996;2023-05-01T06:03:45;97689.47;;;9.92;92.88
72525;BME280;60547;48.502;8.996;2023-05-01T06:06:10;97694.50;;;9.97;93.15
72525;BME280;60547;48.502;8.996;2023-05-01T06:08:36;97695.97;;;10.01;93.06
72525;BME280;60547;48.502;8.996;2023-05-01T06:11:01;97712.59;;;10.18;91.98
72525;BME280;60547;48.502;8.996;2023-05-01T06:13:27;97703.22;;;10.12;91.58
72525;BME280;60547;48.502;8.996;2023-05-01T06:15:52;97698.88;;;10.11;91.24
72525;BME280;60547;48.502;8.996;2023-05-01T06:18:18;97700.97;;;10.07;91.18
72525;BME280;60547;48.502;8.996;2023-05-01T06:20:44;97695.75;;;10.09;91.25
72525;BME280;60547;48.502;8.996;2023-05-01T06:23:09;97699.31;;;10.09;92.01
72525;BME280;60547;48.502;8.996;2023-05-01T06:25:37;97697.66;;;10.12;92.53
72525;BME280;60547;48.502;8.996;2023-05-01T06:28:03;97705.47;;;10.17;91.66
72525;BME280;60547;48.502;8.996;2023-05-01T06:30:29;97685.88;;;10.08;92.32
72525;BME280;60547;48.502;8.996;2023-05-01T06:32:55;97702.34;;;10.15;92.12
72525;BME280;60547;48.502;8.996;2023-05-01T06:35:20;97712.25;;;10.32;91.29
72525;BME280;60547;48.502;8.996;2023-05-01T06:37:46;97712.81;;;10.40;91.27
72525;BME280;60547;48.502;8.996;2023-05-01T06:40:11;97715.25;;;10.38;90.98
72525;BME280;60547;48.502;8.996;2023-05-01T06:42:38;97717.75;;;10.48;91.31
72525;BME280;60547;48.502;8.996;2023-05-01T06:45:06;97699.94;;;10.46;90.55
72525;BME280;60547;48.502;8.996;2023-05-01T06:47:31;97716.53;;;10.49;91.01
72525;BME280;60547;48.502;8.996;2023-05-01T06:49:57;97709.59;;;10.41;91.64
72525;BME280;60547;48.502;8.996;2023-05-01T06:52:23;97711.16;;;10.42;92.91
72525;BME280;60547;48.502;8.996;2023-05-01T06:54:48;97724.44;;;10.51;93.25
72525;BME280;60547;48.502;8.996;2023-05-01T06:57:14;97708.81;;;10.41;92.14
72525;BME280;60547;48.502;8.996;2023-05-01T06:59:39;97712.72;;;10.43;92.00
72525;BME280;60547;48.502;8.996;2023-05-01T07:02:05;97710.28;;;10.45;92.79
72525;BME280;60547;48.502;8.996;2023-05-01T07:04:31;97709.63;;;10.54;91.95
72525;BME280;60547;48.502;8.996;2023-05-01T07:06:58;97713.00;;;10.61;89.67
72525;BME280;60547;48.502;8.996;2023-05-01T07:09:23;97723.91;;;10.68;89.79
72525;BME280;60547;48.502;8.996;2023-05-01T07:11:49;97719.78;;;10.60;90.95
72525;BME280;60547;48.502;8.996;2023-05-01T07:14:14;97712.22;;;10.61;90.81
72525;BME280;60547;48.502;8.996;2023-05-01T07:16:40;97718.47;;;10.65;91.37
72525;BME280;60547;48.502;8.996;2023-05-01T07:19:05;97705.75;;;10.64;91.85
72525;BME280;60547;48.502;8.996;2023-05-01T07:21:31;97713.47;;;10.73;92.60
72525;BME280;60547;48.502;8.996;2023-05-01T07:23:57;97707.22;;;10.68;92.64
72525;BME280;60547;48.502;8.996;2023-05-01T07:26:25;97709.25;;;10.81;92.38
72525;BME280;60547;48.502;8.996;2023-05-01T07:28:51;97715.38;;;10.88;91.67
72525;BME280;60547;48.502;8.996;2023-05-01T07:31:17;97709.16;;;10.84;91.46
72525;BME280;60547;48.502;8.996;2023-05-01T07:33:43;97711.06;;;11.00;91.17
72525;BME280;60547;48.502;8.996;2023-05-01T07:36:08;97709.84;;;11.01;90.06
72525;BME280;60547;48.502;8.996;2023-05-01T07:38:34;97706.03;;;10.95;89.05
72525;BME280;60547;48.502;8.996;2023-05-01T07:40:59;97718.19;;;11.01;89.74
72525;BME280;60547;48.502;8.996;2023-05-01T07:43:25;97711.84;;;11.13;90.15
72525;BME280;60547;48.502;8.996;2023-05-01T07:45:58;97711.50;;;11.11;90.61
72525;BME280;60547;48.502;8.996;2023-05-01T07:48:25;97697.03;;;11.16;88.18
72525;BME280;60547;48.502;8.996;2023-05-01T07:50:52;97711.72;;;11.29;88.54
72525;BME280;60547;48.502;8.996;2023-05-01T07:53:17;97713.50;;;11.36;88.38
72525;BME280;60547;48.502;8.996;2023-05-01T07:55:43;97705.03;;;11.40;88.16
72525;BME280;60547;48.502;8.996;2023-05-01T07:58:09;97705.72;;;11.44;88.57
72525;BME280;60547;48.502;8.996;2023-05-01T08:00:34;97696.34;;;11.50;87.70
72525;BME280;60547;48.502;8.996;2023-05-01T08:03:00;97703.13;;;11.62;86.42
72525;BME280;60547;48.502;8.996;2023-05-01T08:05:26;97707.47;;;11.63;86.25
72525;BME280;60547;48.502;8.996;2023-05-01T08:07:51;97701.00;;;11.66;87.20
72525;BME280;60547;48.502;8.996;2023-05-01T08:10:17;97706.22;;;11.77;85.35
72525;BME280;60547;48.502;8.996;2023-05-01T08:12:42;97709.00;;;11.89;85.03
72525;BME280;60547;48.502;8.996;2023-05-01T08:15:08;97712.34;;;11.97;85.30
72525;BME280;60547;48.502;8.996;2023-05-01T08:17:35;97704.13;;;12.15;85.64
72525;BME280;60547;48.502;8.996;2023-05-01T08:20:01;97701.28;;;12.28;84.97
72525;BME280;60547;48.502;8.996;2023-05-01T08:22:26;97692.47;;;12.29;84.13
72525;BME280;60547;48.502;8.996;2023-05-01T08:24:52;97685.59;;;12.43;83.19
72525;BME280;60547;48.502;8.996;2023-05-01T08:27:17;97692.19;;;12.58;81.58
72525;BME280;60547;48.502;8.996;2023-05-01T08:29:43;97691.94;;;12.66;79.44
72525;BME280;60547;48.502;8.996;2023-05-01T08:32:10;97692.66;;;12.57;79.64
72525;BME280;60547;48.502;8.996;2023-05-01T08:34:35;97694.28;;;12.67;79.10
72525;BME280;60547;48.502;8.996;2023-05-01T08:37:01;97697.53;;;12.66;79.38
72525;BME280;60547;48.502;8.996;2023-05-01T08:39:26;97686.34;;;12.66;80.19
72525;BME280;60547;48.502;8.996;2023-05-01T08:41:52;97700.06;;;12.73;79.71
72525;BME280;60547;48.502;8.996;2023-05-01T08:44:19;97698.34;;;12.75;79.03
72525;BME280;60547;48.502;8.996;2023-05-01T08:46:51;97701.28;;;12.72;79.53
72525;BME280;60547;48.502;8.996;2023-05-01T08:49:19;97696.34;;;12.76;79.69
72525;BME280;60547;48.502;8.996;2023-05-01T08:51:46;97698.28;;;12.88;78.43
72525;BME280;60547;48.502;8.996;2023-05-01T08:54:15;97684.19;;;12.91;78.10
72525;BME280;60547;48.502;8.996;2023-05-01T08:56:42;97706.00;;;12.84;80.71
72525;BME280;60547;48.502;8.996;2023-05-01T08:59:10;97699.19;;;12.85;81.57
72525;BME280;60547;48.502;8.996;2023-05-01T09:01:36;97701.97;;;12.85;80.28
72525;BME280;60547;48.502;8.996;2023-05-01T09:04:03;97669.44;;;12.91;78.30
72525;BME280;60547;48.502;8.996;2023-05-01T09:06:31;97696.28;;;13.19;79.05
72525;BME280;60547;48.502;8.996;2023-05-01T09:08:57;97688.41;;;13.27;75.54
72525;BME280;60547;48.502;8.996;2023-05-01T09:11:23;97695.41;;;13.32;79.57
72525;BME280;60547;48.502;8.996;2023-05-01T09:13:50;97687.81;;;13.32;79.50
72525;BME280;60547;48.502;8.996;2023-05-01T09:16:17;97694.97;;;13.42;78.13
72525;BME280;60547;48.502;8.996;2023-05-01T09:18:43;97684.56;;;13.43;77.12
72525;BME280;60547;48.502;8.996;2023-05-01T09:21:08;97682.47;;;13.65;74.95
72525;BME280;60547;48.502;8.996;2023-05-01T09:23:34;97687.47;;;13.79;74.77
72525;BME280;60547;48.502;8.996;2023-05-01T09:26:07;97684.69;;;13.88;73.42
72525;BME280;60547;48.502;8.996;2023-05-01T09:28:43;97688.13;;;14.02;74.61
72525;BME280;60547;48.502;8.996;2023-05-01T09:31:27;97677.53;;;14.06;74.11
72525;BME280;60547;48.502;8.996;2023-05-01T09:36:19;97686.56;;;14.19;74.32
72525;BME280;60547;48.502;8.996;2023-05-01T09:38:46;97690.13;;;13.92;73.60
72525;BME280;60547;48.502;8.996;2023-05-01T09:41:11;97689.03;;;13.89;74.20
72525;BME280;60547;48.502;8.996;2023-05-01T09:43:37;97681.41;;;13.90;73.28
72525;BME280;60547;48.502;8.996;2023-05-01T09:46:04;97684.84;;;14.03;74.17
72525;BME280;60547;48.502;8.996;2023-05-01T09:48:31;97674.28;;;14.26;74.20
72525;BME280;60547;48.502;8.996;2023-05-01T09:50:56;97683.16;;;14.42;72.51
72525;BME280;60547;48.502;8.996;2023-05-01T09:53:38;97678.66;;;14.54;72.63
72525;BME280;60547;48.502;8.996;2023-05-01T09:56:04;97674.13;;;14.66;73.32
72525;BME280;60547;48.502;8.996;2023-05-01T09:58:30;97671.66;;;14.49;71.41
72525;BME280;60547;48.502;8.996;2023-05-01T10:00:56;97673.22;;;14.50;72.88
72525;BME280;60547;48.502;8.996;2023-05-01T10:03:21;97678.78;;;14.69;72.23
72525;BME280;60547;48.502;8.996;2023-05-01T10:05:47;97687.31;;;14.74;72.47
72525;BME280;60547;48.502;8.996;2023-05-01T10:08:13;97671.94;;;14.70;71.29
72525;BME280;60547;48.502;8.996;2023-05-01T10:10:42;97675.19;;;14.77;70.19
72525;BME280;60547;48.502;8.996;2023-05-01T10:13:17;97667.88;;;14.71;69.81
72525;BME280;60547;48.502;8.996;2023-05-01T10:15:44;97686.25;;;14.72;72.01
72525;BME280;60547;48.502;8.996;2023-05-01T10:18:11;97687.69;;;14.49;70.50
72525;BME280;60547;48.502;8.996;2023-05-01T10:20:38;97691.22;;;14.40;70.46
72525;BME280;60547;48.502;8.996;2023-05-01T10:23:04;97685.00;;;14.36;71.79
72525;BME280;60547;48.502;8.996;2023-05-01T10:25:30;97684.25;;;14.17;71.17
72525;BME280;60547;48.502;8.996;2023-05-01T10:27:56;97693.25;;;14.21;71.23
72525;BME280;60547;48.502;8.996;2023-05-01T10:30:24;97688.28;;;14.16;72.07
72525;BME280;60547;48.502;8.996;2023-05-01T10:32:51;97696.50;;;13.93;72.61
72525;BME280;60547;48.502;8.996;2023-05-01T10:35:20;97683.75;;;13.82;73.23
72525;BME280;60547;48.502;8.996;2023-05-01T10:43:27;97702.66;;;13.69;75.94
72525;BME280;60547;48.502;8.996;2023-05-01T10:51:15;97693.34;;;13.72;81.01
72525;BME280;60547;48.502;8.996;2023-05-01T10:53:46;97688.53;;;13.73;81.59
72525;BME280;60547;48.502;8.996;2023-05-01T10:59:01;97688.97;;;13.53;83.31
72525;BME280;60547;48.502;8.996;2023-05-01T11:01:34;97688.81;;;13.56;85.28
72525;BME280;60547;48.502;8.996;2023-05-01T11:09:46;97687.66;;;14.12;79.90
72525;BME280;60547;48.502;8.996;2023-05-01T11:12:14;97680.81;;;14.13;76.73
72525;BME280;60547;48.502;8.996;2023-05-01T11:20:09;97676.91;;;14.75;71.79
72525;BME280;60547;48.502;8.996;2023-05-01T11:22:36;97678.94;;;14.74;70.74
72525;BME280;60547;48.502;8.996;2023-05-01T11:25:03;97684.50;;;14.83;71.29
72525;BME280;60547;48.502;8.996;2023-05-01T11:27:30;97677.75;;;14.99;71.30
72525;BME280;60547;48.502;8.996;2023-05-01T11:29:57;97668.09;;;15.09;71.46
72525;BME280;60547;48.502;8.996;2023-05-01T11:32:26;97674.69;;;15.30;70.54
72525;BME280;60547;48.502;8.996;2023-05-01T11:34:52;97656.44;;;15.35;69.21
72525;BME280;60547;48.502;8.996;2023-05-01T11:37:18;97662.84;;;15.35;68.12
72525;BME280;60547;48.502;8.996;2023-05-01T11:39:50;97655.50;;;15.38;66.90
72525;BME280;60547;48.502;8.996;2023-05-01T11:42:19;97668.53;;;15.50;66.51
72525;BME280;60547;48.502;8.996;2023-05-01T11:45:08;97661.00;;;15.56;65.73
72525;BME280;60547;48.502;8.996;2023-05-01T11:47:37;97651.81;;;15.56;67.63
72525;BME280;60547;48.502;8.996;2023-05-01T11:50:05;97666.13;;;15.67;68.22
72525;BME280;60547;48.502;8.996;2023-05-01T11:52:41;97657.66;;;15.76;65.21
72525;BME280;60547;48.502;8.996;2023-05-01T11:55:07;97655.31;;;15.74;63.70
72525;BME280;60547;48.502;8.996;2023-05-01T11:57:50;97653.16;;;15.93;64.04
72525;BME280;60547;48.502;8.996;2023-05-01T12:00:36;97652.44;;;15.83;64.07
72525;BME280;60547;48.502;8.996;2023-05-01T12:03:10;97654.22;;;15.96;63.67
72525;BME280;60547;48.502;8.996;2023-05-01T13:14:49;97578.88;;;18.28;54.01
72525;BME280;60547;48.502;8.996;2023-05-01T13:17:29;97575.06;;;18.83;52.88
72525;BME280;60547;48.502;8.996;2023-05-01T13:19:58;97575.69;;;18.67;52.66
72525;BME280;60547;48.502;8.996;2023-05-01T13:22:36;97570.00;;;18.35;54.00
72525;BME280;60547;48.502;8.996;2023-05-01T13:25:04;97565.03;;;18.25;55.57
72525;BME280;60547;48.502;8.996;2023-05-01T13:27:30;97567.88;;;18.04;56.24
72525;BME280;60547;48.502;8.996;2023-05-01T13:29:58;97582.03;;;17.49;56.74
72525;BME280;60547;48.502;8.996;2023-05-01T13:32:24;97614.38;;;16.89;54.77
72525;BME280;60547;48.502;8.996;2023-05-01T13:34:52;97656.97;;;16.05;61.64
72525;BME280;60547;48.502;8.996;2023-05-01T13:37:18;97682.06;;;15.18;70.84
72525;BME280;60547;48.502;8.996;2023-05-01T13:39:45;97676.00;;;14.32;74.14
72525;BME280;60547;48.502;8.996;2023-05-01T13:42:12;97674.88;;;13.75;78.28
72525;BME280;60547;48.502;8.996;2023-05-01T13:44:47;97657.09;;;13.10;81.02
72525;BME280;60547;48.502;8.996;2023-05-01T13:47:16;97652.28;;;13.42;81.89
72525;BME280;60547;48.502;8.996;2023-05-01T13:49:42;97640.16;;;13.45;83.03
72525;BME280;60547;48.502;8.996;2023-05-01T13:52:14;97645.16;;;13.50;82.93
72525;BME280;60547;48.502;8.996;2023-05-01T13:54:41;97646.09;;;13.56;82.36
72525;BME280;60547;48.502;8.996;2023-05-01T13:57:07;97625.88;;;13.43;85.80
72525;BME280;60547;48.502;8.996;2023-05-01T13:59:38;97636.34;;;13.79;86.81
72525;BME280;60547;48.502;8.996;2023-05-01T14:02:25;97632.94;;;13.93;88.53
72525;BME280;60547;48.502;8.996;2023-05-01T14:04:52;97606.34;;;13.98;89.07
72525;BME280;60547;48.502;8.996;2023-05-01T14:07:19;97615.97;;;14.24;83.60
72525;BME280;60547;48.502;8.996;2023-05-01T14:09:52;97608.78;;;14.41;84.43
72525;BME280;60547;48.502;8.996;2023-05-01T14:12:23;97612.72;;;14.44;83.34
72525;BME280;60547;48.502;8.996;2023-05-01T14:14:50;97605.34;;;14.65;79.44
72525;BME280;60547;48.502;8.996;2023-05-01T14:17:17;97622.16;;;14.65;85.88
72525;BME280;60547;48.502;8.996;2023-05-01T14:19:43;97625.41;;;14.63;85.62
72525;BME280;60547;48.502;8.996;2023-05-01T14:22:09;97625.44;;;14.54;85.56
72525;BME280;60547;48.502;8.996;2023-05-01T14:24:39;97631.84;;;14.45;82.75
72525;BME280;60547;48.502;8.996;2023-05-01T14:27:08;97643.66;;;14.31;82.12
72525;BME280;60547;48.502;8.996;2023-05-01T14:29:34;97656.09;;;14.12;81.05
72525;BME280;60547;48.502;8.996;2023-05-01T14:32:03;97668.38;;;13.96;83.27
72525;BME280;60547;48.502;8.996;2023-05-01T14:34:30;97688.69;;;13.69;88.02
72525;BME280;60547;48.502;8.996;2023-05-01T14:36:56;97693.16;;;13.57;87.21
72525;BME280;60547;48.502;8.996;2023-05-01T14:39:23;97691.25;;;13.45;85.24
72525;BME280;60547;48.502;8.996;2023-05-01T14:41:49;97688.66;;;12.89;87.29
72525;BME280;60547;48.502;8.996;2023-05-01T14:44:17;97711.53;;;12.75;89.45
72525;BME280;60547;48.502;8.996;2023-05-01T14:46:47;97702.13;;;12.59;89.38
72525;BME280;60547;48.502;8.996;2023-05-01T14:49:17;97692.47;;;12.51;89.81
72525;BME280;60547;48.502;8.996;2023-05-01T14:51:44;97682.53;;;12.50;91.41
72525;BME280;60547;48.502;8.996;2023-05-01T14:54:10;97683.50;;;12.35;91.69
72525;BME280;60547;48.502;8.996;2023-05-01T14:56:39;97684.75;;;12.55;91.39